Terminal Aerodrome Forecast
Issued by NWS Spokane, WA

Home | Current Version | Previous Version | Text Only | Print | Product List | Glossary On
Versions: 1 2 3 4 5 6 7 8 9 10 11 12 13 14 15 16 17 18 19 20 21 22 23 24 25
000
FTUS46 KOTX 301720
TAFEAT
TAF
KEAT 301720Z 3018/3118 29008KT P6SM SCT150 BKN200
     FM302100 28010G18KT P6SM FEW060 BKN120 BKN200
     FM310000 30016G24KT P6SM BKN060 OVC100
     FM310400 30011KT P6SM SCT100 SCT200
     FM311600 30014KT P6SM FEW200=

USA.gov is the U.S. government's official web portal to all federal, state and local government web resources and services.